Terminal Aerodrome Forecast
Issued by NWS

Home | Current Version | Previous Version | Text Only | Print | Product List | Glossary On
Versions: 1 2 3 4 5 6 7 8 9 10 11 12 13 14 15 16 17 18 19 20 21
000
FTUS46 KSEW 100304 AAA
TAFCLM
TAF AMD
KCLM 100304Z 1003/1024 VRB03KT 6SM -RA BR SCT025 OVC050
      TEMPO 1003/1006 3SM RASN BR OVC025
     FM100600 25006KT P6SM -SHRA BKN022 OVC040
     FM100900 26008KT P6SM VCSH SCT025 BKN035
     FM101500 24008KT P6SM VCSH SCT025 BKN045
     FM101900 10005KT P6SM -RA SCT025 OVC035=

USA.gov is the U.S. government's official web portal to all federal, state and local government web resources and services.